createdAt,value
2023-04-16T00:00:39.176Z,80.15
2023-04-16T00:01:39.371Z,80.15
2023-04-16T00:02:39.698Z,80.08
2023-04-16T00:03:39.922Z,80.38
2023-04-16T00:04:39.988Z,80.55
2023-04-16T00:05:40.116Z,80.85
2023-04-16T00:06:40.248Z,80.85
2023-04-16T00:07:40.412Z,80.85
2023-04-16T00:08:40.603Z,80.65
2023-04-16T00:09:40.794Z,80.04
2023-04-16T00:10:40.943Z,79.94
2023-04-16T00:11:41.098Z,80.15
2023-04-16T00:12:41.260Z,80.24
2023-04-16T00:13:41.446Z,79.74
2023-04-16T00:14:41.658Z,79.74
2023-04-16T00:15:41.805Z,80.24
2023-04-16T00:16:42.038Z,80.35
2023-04-16T00:17:42.230Z,80.15
2023-04-16T00:18:42.344Z,79.53
2023-04-16T00:19:42.536Z,79.53
2023-04-16T00:20:42.693Z,79.63
2023-04-16T00:21:42.879Z,79.74
2023-04-16T00:22:43.070Z,79.84
2023-04-16T00:23:43.254Z,79.94
2023-04-16T00:24:43.477Z,79.94
2023-04-16T00:25:43.634Z,80.15
2023-04-16T00:26:43.817Z,79.98
2023-04-16T00:27:44.002Z,80.24
2023-04-16T00:28:44.173Z,80.15
2023-04-16T00:29:44.364Z,79.84
2023-04-16T00:30:44.533Z,79.94
2023-04-16T00:31:44.719Z,80.08
2023-04-16T00:32:44.946Z,80.04
2023-04-16T00:33:45.071Z,80.24
2023-04-16T00:34:45.277Z,80.35
2023-04-16T00:35:45.431Z,80.04
2023-04-16T00:36:45.617Z,79.57
2023-04-16T00:37:45.778Z,79.88
2023-04-16T00:38:46.007Z,80.08
2023-04-16T00:39:46.167Z,79.68
2023-04-16T00:40:46.331Z,80.18
2023-04-16T00:41:46.476Z,80.49
2023-04-16T00:42:46.663Z,80.29
2023-04-16T00:43:46.849Z,80.29
2023-04-16T00:44:47.025Z,80.38
2023-04-16T00:45:47.192Z,80.38
2023-04-16T00:46:47.541Z,79.98
2023-04-16T00:47:47.543Z,80.08
2023-04-16T00:48:47.698Z,79.98
2023-04-16T00:49:47.908Z,79.88
2023-04-16T00:50:48.055Z,79.77
2023-04-16T00:51:48.217Z,80.18
2023-04-16T00:52:48.417Z,80.18
2023-04-16T00:53:48.602Z,80.29
2023-04-16T00:54:48.827Z,79.98
2023-04-16T00:55:48.961Z,79.94
2023-04-16T00:56:49.136Z,79.84
2023-04-16T00:57:49.325Z,79.77
2023-04-16T00:58:49.496Z,80.08
2023-04-16T00:59:49.699Z,79.84
2023-04-16T01:00:49.848Z,80.04
2023-04-16T01:01:50.083Z,80.15
2023-04-16T01:02:50.303Z,79.84
2023-04-16T01:03:50.497Z,79.74
2023-04-16T01:04:50.562Z,79.53
2023-04-16T01:05:50.724Z,78.82
2023-04-16T01:06:50.899Z,79.33
2023-04-16T01:07:51.090Z,79.33
2023-04-16T01:08:51.291Z,79.33
2023-04-16T01:09:51.451Z,79.33
2023-04-16T01:10:51.652Z,79.13
2023-04-16T01:11:51.787Z,78.62
2023-04-16T01:12:51.983Z,79.33
2023-04-16T01:13:52.172Z,79.23
2023-04-16T01:14:52.322Z,79.33
2023-04-16T01:15:52.517Z,78.62
2023-04-16T01:16:52.702Z,79.02
2023-04-16T01:17:52.883Z,78.76
2023-04-16T01:18:53.056Z,79.06
2023-04-16T01:19:53.203Z,79.06
2023-04-16T01:20:53.375Z,78.86
2023-04-16T01:21:53.542Z,79.68
2023-04-16T01:22:53.735Z,79.37
2023-04-16T01:23:53.940Z,79.68
2023-04-16T01:24:54.093Z,79.27
2023-04-16T01:25:54.284Z,79.57
2023-04-16T01:26:54.437Z,79.57
2023-04-16T01:27:54.599Z,79.37
2023-04-16T01:28:54.809Z,79.88
2023-04-16T01:29:54.949Z,78.96
2023-04-16T01:30:55.159Z,79.37
2023-04-16T01:31:55.306Z,79.37
2023-04-16T01:32:55.517Z,78.96
2023-04-16T01:33:55.685Z,79.57
2023-04-16T01:34:55.829Z,79.68
2023-04-16T01:35:55.989Z,79.37
2023-04-16T01:36:56.200Z,79.57
2023-04-16T01:37:56.367Z,79.68
2023-04-16T01:38:56.541Z,79.77
2023-04-16T01:39:56.713Z,79.68
2023-04-16T01:40:56.863Z,79.68
2023-04-16T01:41:57.058Z,79.68
2023-04-16T01:42:57.233Z,79.16
2023-04-16T01:43:57.468Z,79.27
2023-04-16T01:44:57.592Z,78.86
2023-04-16T01:45:57.776Z,79.27
2023-04-16T01:46:58.086Z,79.57
2023-04-16T01:47:58.148Z,79.37
2023-04-16T01:48:58.304Z,79.47
2023-04-16T01:49:58.459Z,79.30
2023-04-16T01:50:58.645Z,79.50
2023-04-16T01:51:58.849Z,79.50
2023-04-16T01:52:59.019Z,79.50
2023-04-16T01:53:59.212Z,79.41
2023-04-16T01:54:59.375Z,79.50
2023-04-16T01:55:59.575Z,79.81
2023-04-16T01:56:59.707Z,79.71
2023-04-16T01:57:59.892Z,79.61
2023-04-16T01:59:00.137Z,79.41
2023-04-16T02:00:00.272Z,79.50
2023-04-16T02:01:00.527Z,79.41
2023-04-16T02:02:00.712Z,79.41
2023-04-16T02:03:00.909Z,79.71
2023-04-16T02:04:01.064Z,79.41
2023-04-16T02:05:01.110Z,79.81
2023-04-16T02:06:01.292Z,79.30
2023-04-16T02:07:01.448Z,79.20
2023-04-16T02:08:01.668Z,79.10
2023-04-16T02:09:01.812Z,79.30
2023-04-16T02:10:01.995Z,79.41
2023-04-16T02:11:02.176Z,79.20
2023-04-16T02:12:02.370Z,79.00
2023-04-16T02:13:02.561Z,79.20
2023-04-16T02:14:02.741Z,79.50
2023-04-16T02:15:02.884Z,79.10
2023-04-16T02:16:03.146Z,79.00
2023-04-16T02:17:03.266Z,79.00
2023-04-16T02:18:03.512Z,79.41
2023-04-16T02:19:03.576Z,79.41
2023-04-16T02:20:03.774Z,78.69
2023-04-16T02:21:03.927Z,78.89
2023-04-16T02:22:04.114Z,79.00
2023-04-16T02:23:04.314Z,78.69
2023-04-16T02:24:04.462Z,78.59
2023-04-16T02:25:04.650Z,79.20
2023-04-16T02:26:04.847Z,78.69
2023-04-16T02:27:05.022Z,78.80
2023-04-16T02:28:05.228Z,78.69
2023-04-16T02:29:05.386Z,78.80
2023-04-16T02:30:05.588Z,78.69
2023-04-16T02:31:05.733Z,79.10
2023-04-16T02:32:05.993Z,78.69
2023-04-16T02:33:06.318Z,79.00
2023-04-16T02:34:06.287Z,78.80
2023-04-16T02:35:06.462Z,79.00
2023-04-16T02:36:06.664Z,78.89
2023-04-16T02:37:06.824Z,78.80
2023-04-16T02:38:07.015Z,78.69
2023-04-16T02:39:07.344Z,78.39
2023-04-16T02:40:07.350Z,78.80
2023-04-16T02:41:07.499Z,78.80
2023-04-16T02:42:07.793Z,78.49
2023-04-16T02:43:07.886Z,78.80
2023-04-16T02:44:08.031Z,79.10
2023-04-16T02:45:08.225Z,78.53
2023-04-16T02:46:08.479Z,78.73
2023-04-16T02:47:08.617Z,79.24
2023-04-16T02:48:08.827Z,79.24
2023-04-16T02:49:09.127Z,78.73
2023-04-16T02:50:09.141Z,79.03
2023-04-16T02:51:09.312Z,79.30
2023-04-16T02:52:09.502Z,78.69
2023-04-16T02:53:09.700Z,78.80
2023-04-16T02:54:09.866Z,78.59
2023-04-16T02:55:10.032Z,78.73
2023-04-16T02:56:10.218Z,78.63
2023-04-16T02:57:10.398Z,78.53
2023-04-16T02:58:10.593Z,78.59
2023-04-16T02:59:11.009Z,78.53
2023-04-16T03:00:10.939Z,78.63
2023-04-16T03:01:11.109Z,78.53
2023-04-16T03:02:11.342Z,78.32
2023-04-16T03:03:11.482Z,78.32
2023-04-16T03:04:11.683Z,78.12
2023-04-16T03:05:11.809Z,78.63
2023-04-16T03:06:11.983Z,78.63
2023-04-16T03:07:12.137Z,78.53
2023-04-16T03:08:12.339Z,78.87
2023-04-16T03:09:12.569Z,78.93
2023-04-16T03:10:12.639Z,78.73
2023-04-16T03:11:12.815Z,78.77
2023-04-16T03:12:13.000Z,78.77
2023-04-16T03:13:13.151Z,79.27
2023-04-16T03:14:13.354Z,78.97
2023-04-16T03:15:13.505Z,79.07
2023-04-16T03:16:13.753Z,79.27
2023-04-16T03:17:13.917Z,78.87
2023-04-16T03:18:14.025Z,79.07
2023-04-16T03:19:14.181Z,79.38
2023-04-16T03:20:14.380Z,79.24
2023-04-16T03:21:14.534Z,79.14
2023-04-16T03:22:14.740Z,78.73
2023-04-16T03:23:14.889Z,78.36
2023-04-16T03:24:15.088Z,78.53
2023-04-16T03:25:15.268Z,78.36
2023-04-16T03:26:15.451Z,78.36
2023-04-16T03:27:15.656Z,78.66
2023-04-16T03:28:15.809Z,78.56
2023-04-16T03:29:16.001Z,78.56
2023-04-16T03:30:16.178Z,78.66
2023-04-16T03:31:16.345Z,78.77
2023-04-16T03:32:16.554Z,78.77
2023-04-16T03:33:16.687Z,78.97
2023-04-16T03:34:16.875Z,78.97
2023-04-16T03:35:17.023Z,78.87
2023-04-16T03:36:17.206Z,78.66
2023-04-16T03:37:17.410Z,78.77
2023-04-16T03:38:17.577Z,78.56
2023-04-16T03:39:17.760Z,78.66
2023-04-16T03:40:17.947Z,78.66
2023-04-16T03:41:18.129Z,78.77
2023-04-16T03:42:18.361Z,78.36
2023-04-16T03:43:18.495Z,78.66
2023-04-16T03:44:18.682Z,78.66
2023-04-16T03:45:18.852Z,78.97
2023-04-16T03:46:19.112Z,79.17
2023-04-16T03:47:19.257Z,78.66
2023-04-16T03:48:19.376Z,77.95
2023-04-16T03:49:19.553Z,78.87
2023-04-16T03:50:19.776Z,78.80
2023-04-16T03:51:19.901Z,78.80
2023-04-16T03:52:20.111Z,79.11
2023-04-16T03:53:20.264Z,79.27
2023-04-16T03:54:22.586Z,78.80
2023-04-16T03:55:20.613Z,78.70
2023-04-16T03:56:20.805Z,78.91
2023-04-16T03:57:21.002Z,78.77
2023-04-16T03:58:21.174Z,78.87
2023-04-16T03:59:21.343Z,78.77
2023-04-16T04:00:21.511Z,78.26
2023-04-16T04:01:21.710Z,78.30
2023-04-16T04:02:21.997Z,78.50
2023-04-16T04:03:22.188Z,78.70
2023-04-16T04:04:22.360Z,78.50
2023-04-16T04:05:22.409Z,78.50
2023-04-16T04:06:22.586Z,78.50
2023-04-16T04:07:22.788Z,79.11
2023-04-16T04:08:22.932Z,79.00
2023-04-16T04:09:23.104Z,78.91
2023-04-16T04:10:23.269Z,79.07
2023-04-16T04:11:23.459Z,78.87
2023-04-16T04:12:23.641Z,78.36
2023-04-16T04:13:23.806Z,78.46
2023-04-16T04:14:23.971Z,78.66
2023-04-16T04:15:24.147Z,78.05
2023-04-16T04:16:24.363Z,78.26
2023-04-16T04:17:24.501Z,78.36
2023-04-16T04:18:24.661Z,78.46
2023-04-16T04:19:24.824Z,78.77
2023-04-16T04:20:24.989Z,78.56
2023-04-16T04:21:25.163Z,78.16
2023-04-16T04:22:25.342Z,78.46
2023-04-16T04:23:25.503Z,78.05
2023-04-16T04:24:25.682Z,77.75
2023-04-16T04:25:25.860Z,78.19
2023-04-16T04:26:26.082Z,78.50
2023-04-16T04:27:26.302Z,78.50
2023-04-16T04:28:26.402Z,78.09
2023-04-16T04:29:26.566Z,78.50
2023-04-16T04:30:26.758Z,78.60
2023-04-16T04:31:26.963Z,78.66
2023-04-16T04:32:27.160Z,78.16
2023-04-16T04:33:27.309Z,78.26
2023-04-16T04:34:27.489Z,77.85
2023-04-16T04:35:27.642Z,78.09
2023-04-16T04:36:27.817Z,78.60
2023-04-16T04:37:28.005Z,78.30
2023-04-16T04:38:28.165Z,78.19
2023-04-16T04:39:28.332Z,78.36
2023-04-16T04:40:28.511Z,78.16
2023-04-16T04:41:28.689Z,78.09
2023-04-16T04:42:28.896Z,78.19
2023-04-16T04:43:29.024Z,78.70
2023-04-16T04:44:29.184Z,78.56
2023-04-16T04:45:31.698Z,78.97
2023-04-16T04:46:29.566Z,78.46
2023-04-16T04:47:29.765Z,78.26
2023-04-16T04:48:29.884Z,78.36
2023-04-16T04:49:30.050Z,78.36
2023-04-16T04:50:30.206Z,78.36
2023-04-16T04:51:30.370Z,78.05
2023-04-16T04:52:30.544Z,78.36
2023-04-16T04:53:30.703Z,78.36
2023-04-16T04:54:30.910Z,77.85
2023-04-16T04:55:31.051Z,78.36
2023-04-16T04:56:31.217Z,78.16
2023-04-16T04:57:31.448Z,78.26
2023-04-16T04:58:31.555Z,78.36
2023-04-16T04:59:31.726Z,78.46
2023-04-16T05:00:31.900Z,78.16
2023-04-16T05:01:32.089Z,78.26
2023-04-16T05:02:32.284Z,78.26
2023-04-16T05:03:32.461Z,78.16
2023-04-16T05:04:32.705Z,77.95
2023-04-16T05:05:32.751Z,77.75
2023-04-16T05:06:32.972Z,78.16
2023-04-16T05:07:33.116Z,78.09
2023-04-16T05:08:33.277Z,78.36
2023-04-16T05:09:33.459Z,78.05
2023-04-16T05:10:33.620Z,78.26
2023-04-16T05:11:33.789Z,78.05
2023-04-16T05:12:33.971Z,78.36
2023-04-16T05:13:34.133Z,78.46
2023-04-16T05:14:34.300Z,78.46
2023-04-16T05:15:34.478Z,78.05
2023-04-16T05:16:34.708Z,77.75
2023-04-16T05:17:34.832Z,78.05
2023-04-16T05:18:34.985Z,78.36
2023-04-16T05:19:35.160Z,78.26
2023-04-16T05:20:35.330Z,78.36
2023-04-16T05:21:35.508Z,77.95
2023-04-16T05:22:35.689Z,77.55
2023-04-16T05:23:35.860Z,77.85
2023-04-16T05:24:36.023Z,77.95
2023-04-16T05:25:36.196Z,78.87
2023-04-16T05:26:36.365Z,78.77
2023-04-16T05:27:36.560Z,77.85
2023-04-16T05:28:36.719Z,78.16
2023-04-16T05:29:36.884Z,78.12
2023-04-16T05:30:37.116Z,77.81
2023-04-16T05:31:37.219Z,78.42
2023-04-16T05:32:37.428Z,78.32
2023-04-16T05:33:37.561Z,77.10
2023-04-16T05:34:37.722Z,77.51
2023-04-16T05:35:37.886Z,77.91
2023-04-16T05:36:38.058Z,77.20
2023-04-16T05:37:38.233Z,78.22
2023-04-16T05:38:38.406Z,77.91
2023-04-16T05:39:38.626Z,77.30
2023-04-16T05:40:38.781Z,77.20
2023-04-16T05:41:38.946Z,77.71
2023-04-16T05:42:39.129Z,77.20
2023-04-16T05:43:39.304Z,77.20
2023-04-16T05:44:39.485Z,76.59
2023-04-16T05:45:39.659Z,77.37
2023-04-16T05:46:39.976Z,77.47
2023-04-16T05:47:40.054Z,77.17
2023-04-16T05:48:40.281Z,77.17
2023-04-16T05:49:40.342Z,76.96
2023-04-16T05:50:40.546Z,76.45
2023-04-16T05:51:40.700Z,76.25
2023-04-16T05:52:40.906Z,76.35
2023-04-16T05:53:41.062Z,76.49
2023-04-16T05:54:41.234Z,77.06
2023-04-16T05:55:41.416Z,76.86
2023-04-16T05:56:41.587Z,77.67
2023-04-16T05:57:41.779Z,77.06
2023-04-16T05:58:41.950Z,76.56
2023-04-16T05:59:42.143Z,76.86
2023-04-16T06:00:42.305Z,76.65
2023-04-16T06:01:42.483Z,76.86
2023-04-16T06:02:42.783Z,76.96
2023-04-16T06:03:42.946Z,76.76
2023-04-16T06:04:43.036Z,76.76
2023-04-16T06:05:43.245Z,76.86
2023-04-16T06:06:43.375Z,77.26
2023-04-16T06:07:43.550Z,76.25
2023-04-16T06:08:43.727Z,76.65
2023-04-16T06:09:43.893Z,76.56
2023-04-16T06:10:44.067Z,76.35
2023-04-16T06:11:44.234Z,76.86
2023-04-16T06:12:44.412Z,76.25
2023-04-16T06:13:44.578Z,76.25
2023-04-16T06:14:44.755Z,77.17
2023-04-16T06:15:44.989Z,76.25
2023-04-16T06:16:45.102Z,76.25
2023-04-16T06:17:45.318Z,76.45
2023-04-16T06:18:45.446Z,76.65
2023-04-16T06:19:45.620Z,76.56
2023-04-16T06:20:45.795Z,77.06
2023-04-16T06:21:45.949Z,77.57
2023-04-16T06:22:46.123Z,76.76
2023-04-16T06:23:46.287Z,76.72
2023-04-16T06:24:46.466Z,76.52
2023-04-16T06:25:46.640Z,76.11
2023-04-16T06:26:46.786Z,76.72
2023-04-16T06:27:46.985Z,76.11
2023-04-16T06:28:47.130Z,76.62
2023-04-16T06:29:47.298Z,77.23
2023-04-16T06:30:47.474Z,77.33
2023-04-16T06:31:47.751Z,76.52
2023-04-16T06:32:48.013Z,76.07
2023-04-16T06:33:47.982Z,75.81
2023-04-16T06:34:48.142Z,76.48
2023-04-16T06:35:48.310Z,76.38
2023-04-16T06:36:48.481Z,75.37
2023-04-16T06:37:48.658Z,75.37
2023-04-16T06:38:48.819Z,75.57
2023-04-16T06:39:48.983Z,75.16
2023-04-16T06:40:49.157Z,75.26
2023-04-16T06:41:49.334Z,76.07
2023-04-16T06:42:49.502Z,76.07
2023-04-16T06:43:49.665Z,76.38
2023-04-16T06:44:49.832Z,75.77
2023-04-16T06:45:50.034Z,75.77
2023-04-16T06:46:50.243Z,75.77
2023-04-16T06:47:50.439Z,75.87
2023-04-16T06:48:50.537Z,75.87
2023-04-16T06:49:50.705Z,76.79
2023-04-16T06:50:50.872Z,76.34
2023-04-16T06:51:51.033Z,75.94
2023-04-16T06:52:51.213Z,75.63
2023-04-16T06:53:51.385Z,75.63
2023-04-16T06:54:51.582Z,75.84
2023-04-16T06:55:51.728Z,75.12
2023-04-16T06:56:51.874Z,74.99
2023-04-16T06:57:52.088Z,74.38
2023-04-16T06:58:52.255Z,74.88
2023-04-16T06:59:52.431Z,75.40
2023-04-16T07:00:52.658Z,74.38
2023-04-16T07:01:53.015Z,75.19
2023-04-16T07:02:53.147Z,74.88
2023-04-16T07:03:53.438Z,74.38
2023-04-16T07:04:53.288Z,74.99
2023-04-16T07:05:53.466Z,74.88
2023-04-16T07:06:53.633Z,75.49
2023-04-16T07:07:53.842Z,75.29
2023-04-16T07:08:53.983Z,74.68
2023-04-16T07:09:54.141Z,75.19
2023-04-16T07:10:54.319Z,74.07
2023-04-16T07:11:54.498Z,74.58
2023-04-16T07:12:54.630Z,75.60
2023-04-16T07:13:54.797Z,75.49
2023-04-16T07:14:54.973Z,74.99
2023-04-16T07:15:55.135Z,73.97
2023-04-16T07:16:55.347Z,74.68
2023-04-16T07:17:55.476Z,74.28
2023-04-16T07:18:55.627Z,74.79
2023-04-16T07:19:55.805Z,75.60
2023-04-16T07:20:55.972Z,74.79
2023-04-16T07:21:56.141Z,73.87
2023-04-16T07:22:56.322Z,74.01
2023-04-16T07:23:56.493Z,74.92
2023-04-16T07:24:56.658Z,75.43
2023-04-16T07:25:56.812Z,74.31
2023-04-16T07:26:56.991Z,75.53
2023-04-16T07:27:57.178Z,75.33
2023-04-16T07:28:57.325Z,76.34
2023-04-16T07:29:57.490Z,75.12
2023-04-16T07:30:57.661Z,75.53
2023-04-16T07:31:57.872Z,75.53
2023-04-16T07:32:58.071Z,74.41
2023-04-16T07:33:58.175Z,74.92
2023-04-16T07:34:58.317Z,75.33
2023-04-16T07:35:58.484Z,75.53
2023-04-16T07:36:58.664Z,74.21
2023-04-16T07:37:58.855Z,75.02
2023-04-16T07:38:59.022Z,75.02
2023-04-16T07:39:59.192Z,75.12
2023-04-16T07:40:59.379Z,74.92
2023-04-16T07:41:59.531Z,75.53
2023-04-16T07:42:59.700Z,75.02
2023-04-16T07:43:59.886Z,74.52
2023-04-16T07:45:00.083Z,75.12
2023-04-16T07:46:00.282Z,75.53
2023-04-16T07:47:00.523Z,75.02
2023-04-16T07:48:00.638Z,74.41
2023-04-16T07:49:00.796Z,75.46
2023-04-16T07:50:00.982Z,75.46
2023-04-16T07:51:01.155Z,75.46
2023-04-16T07:52:01.327Z,75.73
2023-04-16T07:53:01.489Z,75.63
2023-04-16T07:54:01.661Z,75.63
2023-04-16T07:55:01.844Z,75.53
2023-04-16T07:56:01.983Z,75.23
2023-04-16T07:57:02.184Z,74.82
2023-04-16T07:58:02.325Z,74.76
2023-04-16T07:59:14.440Z,75.67
2023-04-16T08:00:03.657Z,75.87
2023-04-16T08:01:02.833Z,76.04
2023-04-16T08:02:03.055Z,75.16
2023-04-16T08:03:03.309Z,75.87
2023-04-16T08:04:03.495Z,76.14
2023-04-16T08:05:03.633Z,75.84
2023-04-16T08:06:03.699Z,75.12
2023-04-16T08:07:03.903Z,75.23
2023-04-16T08:08:04.049Z,76.04
2023-04-16T08:09:04.212Z,75.53
2023-04-16T08:10:04.406Z,74.31
2023-04-16T08:11:04.566Z,75.12
2023-04-16T08:12:04.727Z,73.70
2023-04-16T08:13:04.915Z,75.73
2023-04-16T08:14:05.059Z,74.82
2023-04-16T08:15:05.232Z,74.21
2023-04-16T08:16:05.417Z,74.72
2023-04-16T08:17:05.560Z,75.43
2023-04-16T08:18:05.867Z,76.14
2023-04-16T08:19:05.924Z,75.84
2023-04-16T08:20:06.113Z,75.63
2023-04-16T08:21:06.285Z,75.33
2023-04-16T08:22:06.458Z,76.31
2023-04-16T08:23:06.604Z,76.92
2023-04-16T08:24:06.791Z,74.88
2023-04-16T08:25:06.950Z,75.09
2023-04-16T08:26:07.143Z,75.87
2023-04-16T08:27:17.807Z,74.95
2023-04-16T08:28:08.518Z,75.16
2023-04-16T08:29:07.902Z,75.32
2023-04-16T08:30:07.833Z,75.73
2023-04-16T08:31:08.102Z,75.63
2023-04-16T08:32:08.197Z,73.90
2023-04-16T08:33:08.404Z,74.31
2023-04-16T08:34:08.537Z,74.41
2023-04-16T08:35:08.711Z,74.58
2023-04-16T08:36:08.877Z,75.09
2023-04-16T08:37:09.087Z,75.29
2023-04-16T08:38:09.256Z,73.77
2023-04-16T08:39:09.972Z,73.77
2023-04-16T08:40:09.615Z,74.88
2023-04-16T08:41:09.783Z,73.57
2023-04-16T08:42:09.999Z,73.36
2023-04-16T08:43:10.167Z,73.50
2023-04-16T08:44:10.317Z,73.60
2023-04-16T08:45:10.498Z,74.01
2023-04-16T08:46:10.722Z,74.82
2023-04-16T08:47:10.845Z,73.80
2023-04-16T08:48:11.063Z,73.60
2023-04-16T08:49:11.438Z,74.21
2023-04-16T08:50:11.474Z,73.02
2023-04-16T08:51:11.563Z,74.75
2023-04-16T08:52:11.746Z,75.16
2023-04-16T08:53:11.936Z,74.75
2023-04-16T08:54:12.105Z,74.75
2023-04-16T08:55:12.364Z,74.14
2023-04-16T08:56:12.461Z,74.34
2023-04-16T08:57:12.607Z,74.95
2023-04-16T08:58:12.752Z,74.85
2023-04-16T08:59:12.939Z,75.76
2023-04-16T09:00:13.131Z,74.65
2023-04-16T09:01:13.317Z,74.65
2023-04-16T09:02:13.561Z,74.95
2023-04-16T09:03:13.808Z,74.51
2023-04-16T09:04:13.966Z,74.21
2023-04-16T09:05:14.046Z,75.43
2023-04-16T09:06:14.210Z,75.73
2023-04-16T09:07:14.393Z,74.10
2023-04-16T09:08:14.552Z,73.80
2023-04-16T09:09:14.733Z,74.31
2023-04-16T09:10:14.922Z,74.10
2023-04-16T09:11:15.068Z,73.60
2023-04-16T09:12:15.284Z,73.70
2023-04-16T09:13:15.442Z,73.09
2023-04-16T09:14:15.599Z,73.29
2023-04-16T09:15:15.780Z,73.70
2023-04-16T09:16:16.003Z,73.70
2023-04-16T09:17:16.159Z,74.10
2023-04-16T09:18:16.328Z,74.01
2023-04-16T09:19:16.479Z,73.70
2023-04-16T09:20:16.671Z,73.60
2023-04-16T09:21:16.839Z,74.10
2023-04-16T09:22:17.028Z,73.60
2023-04-16T09:23:17.186Z,73.50
2023-04-16T09:24:17.344Z,73.19
2023-04-16T09:25:17.522Z,73.60
2023-04-16T09:26:17.702Z,74.51
2023-04-16T09:27:17.889Z,74.62
2023-04-16T09:28:18.046Z,73.60
2023-04-16T09:29:18.197Z,73.90
2023-04-16T09:30:18.388Z,74.10
2023-04-16T09:31:18.631Z,74.10
2023-04-16T09:32:18.792Z,73.83
2023-04-16T09:33:18.945Z,73.94
2023-04-16T09:34:19.093Z,74.34
2023-04-16T09:35:19.282Z,73.53
2023-04-16T09:36:19.479Z,74.65
2023-04-16T09:37:19.628Z,74.34
2023-04-16T09:38:19.836Z,74.34
2023-04-16T09:39:20.006Z,74.65
2023-04-16T09:40:20.174Z,73.74
2023-04-16T09:41:20.325Z,73.94
2023-04-16T09:42:20.477Z,74.44
2023-04-16T09:43:20.643Z,75.16
2023-04-16T09:44:20.829Z,74.44
2023-04-16T09:45:21.002Z,74.55
2023-04-16T09:46:21.242Z,74.24
2023-04-16T09:47:21.384Z,74.44
2023-04-16T09:48:21.554Z,74.55
2023-04-16T09:49:21.729Z,74.14
2023-04-16T09:50:21.906Z,75.67
2023-04-16T09:51:22.136Z,74.44
2023-04-16T09:52:22.296Z,74.95
2023-04-16T09:53:22.473Z,74.85
2023-04-16T09:54:22.665Z,74.31
2023-04-16T09:55:22.855Z,75.22
2023-04-16T09:56:23.063Z,74.21
2023-04-16T09:57:23.224Z,74.38
2023-04-16T09:58:23.388Z,74.74
2023-04-16T09:59:23.541Z,74.44
2023-04-16T10:00:23.737Z,74.41
2023-04-16T10:01:23.964Z,73.80
2023-04-16T10:02:24.125Z,73.19
2023-04-16T10:03:24.376Z,73.29
2023-04-16T10:04:24.423Z,72.96
2023-04-16T10:05:24.584Z,72.04
2023-04-16T10:06:24.778Z,71.33
2023-04-16T10:07:24.922Z,72.85
2023-04-16T10:08:25.104Z,71.84
2023-04-16T10:09:25.286Z,72.01
2023-04-16T10:10:25.464Z,72.31
2023-04-16T10:11:25.675Z,72.68
2023-04-16T10:12:25.821Z,70.25
2023-04-16T10:13:25.996Z,70.15
2023-04-16T10:14:26.167Z,71.37
2023-04-16T10:15:26.337Z,71.26
2023-04-16T10:16:26.579Z,72.08
2023-04-16T10:17:26.719Z,71.80
2023-04-16T10:18:26.861Z,70.29
2023-04-16T10:19:27.043Z,70.29
2023-04-16T10:20:27.209Z,70.83
2023-04-16T10:21:27.395Z,70.32
2023-04-16T10:22:27.544Z,71.13
2023-04-16T10:23:27.714Z,71.23
2023-04-16T10:24:27.884Z,70.21
2023-04-16T10:25:28.064Z,72.14
2023-04-16T10:26:28.207Z,72.04
2023-04-16T10:27:28.382Z,71.23
2023-04-16T10:28:28.557Z,71.33
2023-04-16T10:29:28.752Z,71.44
2023-04-16T10:30:28.950Z,70.83
2023-04-16T10:31:29.191Z,72.34
2023-04-16T10:32:29.265Z,72.65
2023-04-16T10:33:29.450Z,71.23
2023-04-16T10:34:29.609Z,70.42
2023-04-16T10:35:29.797Z,71.33
2023-04-16T10:36:29.945Z,71.57
2023-04-16T10:37:30.137Z,72.17
2023-04-16T10:38:30.317Z,71.06
2023-04-16T10:39:30.455Z,71.16
2023-04-16T10:40:30.639Z,72.78
2023-04-16T10:41:30.823Z,72.68
2023-04-16T10:42:30.989Z,71.67
2023-04-16T10:43:31.163Z,72.68
2023-04-16T10:44:31.313Z,71.77
2023-04-16T10:45:31.515Z,72.78
2023-04-16T10:46:31.697Z,73.29
2023-04-16T10:47:31.848Z,72.58
2023-04-16T10:48:46.608Z,71.88
2023-04-16T10:49:33.222Z,71.77
2023-04-16T10:50:32.386Z,70.76
2023-04-16T10:51:32.534Z,71.80
2023-04-16T10:52:32.701Z,72.21
2023-04-16T10:53:32.878Z,72.92
2023-04-16T10:54:33.053Z,72.28
2023-04-16T10:55:33.244Z,73.29
2023-04-16T10:56:33.410Z,72.89
2023-04-16T10:57:33.586Z,73.80
2023-04-16T10:58:33.767Z,73.39
2023-04-16T10:59:33.985Z,72.28
2023-04-16T11:00:34.135Z,73.29
2023-04-16T11:01:34.354Z,72.89
2023-04-16T11:02:34.611Z,73.39
2023-04-16T11:03:34.711Z,71.47
2023-04-16T11:04:34.897Z,72.17
2023-04-16T11:05:35.016Z,72.68
2023-04-16T11:06:35.155Z,71.88
2023-04-16T11:07:35.392Z,71.97
2023-04-16T11:08:44.304Z,71.26
2023-04-16T11:09:36.694Z,71.77
2023-04-16T11:10:35.868Z,71.26
2023-04-16T11:11:36.038Z,70.56
2023-04-16T11:12:36.249Z,71.26
2023-04-16T11:13:36.396Z,71.77
2023-04-16T11:14:36.561Z,72.68
2023-04-16T11:15:36.755Z,72.08
2023-04-16T11:16:36.909Z,72.89
2023-04-16T11:17:37.267Z,72.48
2023-04-16T11:18:37.246Z,72.08
2023-04-16T11:19:38.443Z,71.77
2023-04-16T11:20:37.628Z,72.68
2023-04-16T11:21:37.781Z,72.48
2023-04-16T11:22:37.980Z,73.29
2023-04-16T11:23:38.167Z,72.24
2023-04-16T11:24:38.297Z,72.34
2023-04-16T11:25:38.510Z,73.25
2023-04-16T11:26:38.648Z,72.55
2023-04-16T11:27:38.840Z,72.14
2023-04-16T11:28:39.014Z,72.55
2023-04-16T11:29:39.207Z,72.24
2023-04-16T11:30:39.396Z,72.45
2023-04-16T11:31:39.620Z,71.70
2023-04-16T11:32:39.792Z,72.41
2023-04-16T11:33:39.987Z,71.91
2023-04-16T11:34:40.113Z,70.49
2023-04-16T11:35:40.303Z,71.70
2023-04-16T11:36:40.469Z,71.70
2023-04-16T11:37:40.648Z,71.67
2023-04-16T11:38:40.856Z,71.37
2023-04-16T11:39:41.014Z,71.26
2023-04-16T11:40:41.205Z,72.44
2023-04-16T11:41:41.382Z,72.04
2023-04-16T11:42:41.611Z,71.20
2023-04-16T11:43:41.752Z,69.48
2023-04-16T11:44:41.933Z,70.25
2023-04-16T11:45:42.135Z,69.55
2023-04-16T11:46:42.296Z,68.94
2023-04-16T11:47:42.473Z,69.75
2023-04-16T11:48:42.636Z,70.56
2023-04-16T11:49:42.783Z,69.85
2023-04-16T11:50:42.971Z,68.94
2023-04-16T11:51:43.116Z,69.85
2023-04-16T11:52:43.293Z,70.46
2023-04-16T11:53:43.470Z,70.46
2023-04-16T11:54:43.654Z,69.07
2023-04-16T11:55:43.848Z,69.98
2023-04-16T11:56:43.993Z,68.37
2023-04-16T11:57:44.174Z,70.49
2023-04-16T11:58:44.337Z,70.59
2023-04-16T12:00:01.635Z,70.93
2023-04-16T12:00:45.717Z,70.52
2023-04-16T12:01:44.866Z,71.53
2023-04-16T12:02:45.191Z,71.64
2023-04-16T12:03:45.439Z,69.51
2023-04-16T12:04:45.478Z,69.74
2023-04-16T12:05:45.596Z,69.85
2023-04-16T12:06:45.737Z,69.34
2023-04-16T12:07:45.909Z,69.78
2023-04-16T12:08:46.089Z,70.49
2023-04-16T12:09:46.310Z,70.89
2023-04-16T12:10:46.459Z,71.40
2023-04-16T12:11:46.636Z,70.89
2023-04-16T12:12:46.805Z,70.59
2023-04-16T12:13:46.991Z,70.21
2023-04-16T12:14:47.192Z,71.53
2023-04-16T12:15:47.380Z,71.94
2023-04-16T12:16:47.655Z,72.14
2023-04-16T12:17:47.793Z,71.23
2023-04-16T12:18:47.935Z,71.03
2023-04-16T12:19:48.086Z,72.34
2023-04-16T12:20:48.270Z,73.36
2023-04-16T12:21:48.441Z,72.96
2023-04-16T12:22:48.637Z,73.02
2023-04-16T12:23:48.805Z,71.91
2023-04-16T12:24:48.992Z,71.20
2023-04-16T12:25:49.173Z,71.03
2023-04-16T12:26:49.342Z,71.33
2023-04-16T12:27:51.444Z,71.53
2023-04-16T12:28:49.700Z,70.93
2023-04-16T12:29:49.883Z,72.24
2023-04-16T12:30:50.137Z,72.04
2023-04-16T12:31:50.201Z,72.24
2023-04-16T12:32:50.482Z,71.23
2023-04-16T12:33:50.574Z,71.73
2023-04-16T12:34:50.740Z,71.73
2023-04-16T12:35:50.944Z,71.73
2023-04-16T12:36:51.083Z,72.24
2023-04-16T12:37:51.255Z,71.84
2023-04-16T12:38:51.450Z,71.53
2023-04-16T12:39:51.624Z,72.45
2023-04-16T12:40:51.889Z,72.96
2023-04-16T12:41:51.976Z,72.34
2023-04-16T12:42:52.138Z,72.01
2023-04-16T12:43:52.330Z,71.94
2023-04-16T12:44:52.495Z,72.55
2023-04-16T12:45:52.759Z,70.62
2023-04-16T12:46:52.829Z,70.93
2023-04-16T12:47:53.054Z,72.04
2023-04-16T12:48:53.157Z,71.23
2023-04-16T12:49:53.352Z,71.13
2023-04-16T12:50:53.483Z,71.13
2023-04-16T12:51:53.660Z,72.14
2023-04-16T12:52:53.830Z,72.14
2023-04-16T12:53:54.019Z,72.14
2023-04-16T12:54:54.185Z,72.81